Bookmark and Share
Track history (hours):
 

Thomson Majesty

Last reported at 2014-Apr-18 07:32 UTC. Time now 2014-Apr-18 08:02 UTC.
Position N 36°52' W 001°26'.

Length 207 m; draft 6.2 m.

Type: Passenger vessel. MMSI: 248124000.

NotesDate/timePositionNaut miles runAvg speedWind from/ knotsBaromVisibWave heightAir tempDewpointWater temp
2014-Apr-18 07:32N 36°52' W 001°26'14012.7
2014-Apr-17 20:33N 36°40' W 004°20'4 0.3
2014-Apr-17 03:04N 36°42' W 004°25'612.5
2014-Apr-17 02:33N 36°36' W 004°23'37 5.8
2014-Apr-16 20:09N 36°12' W 004°58'711.4
2014-Apr-16 19:33N 36°08' W 005°05'1312.6
2014-Apr-16 18:33N 36°05' W 005°20'4 3.9
2014-Apr-16 17:32N 36°09' W 005°22'0 0.0
2014-Apr-16 16:32N 36°09' W 005°22'0 0.0
2014-Apr-16 15:32N 36°09' W 005°22'0 0.0
2014-Apr-16 14:32N 36°09' W 005°22'0 0.0
2014-Apr-16 13:29N 36°09' W 005°22'0 0.0
2014-Apr-16 12:32N 36°09' W 005°22'0 0.0
2014-Apr-16 11:32N 36°09' W 005°22'0 0.0
2014-Apr-16 10:32N 36°09' W 005°22'0 0.0
2014-Apr-16 09:32N 36°09' W 005°22'0 0.0
2014-Apr-16 08:32N 36°09' W 005°22'0 0.0
2014-Apr-16 07:32N 36°09' W 005°22'0 0.0
2014-Apr-16 06:32N 36°09' W 005°22'0 0.2
2014-Apr-16 05:33N 36°09' W 005°22'7 6.7
2014-Apr-16 04:33N 36°02' W 005°23'1313.0
2014-Apr-16 03:33N 35°56' W 005°37'1513.8
2014-Apr-16 02:26N 35°58' W 005°56'41 5.7
2014-Apr-15 19:13N 36°27' W 006°32'811.3
2014-Apr-15 18:29N 36°33' W 006°24'96 1.9
2014-Apr-13 16:33N 36°36' W 008°24'1414.2
2014-Apr-13 15:33N 36°50' W 008°28'1413.7
2014-Apr-13 14:33N 37°03' W 008°32'5 4.4
2014-Apr-13 13:32N 37°08' W 008°32'0 0.0
2014-Apr-13 12:32N 37°08' W 008°32'0 0.0
2014-Apr-13 11:32N 37°08' W 008°32'0 0.0
2014-Apr-13 10:32N 37°08' W 008°32'0 0.0
2014-Apr-13 09:20N 37°08' W 008°32'0 0.0
2014-Apr-13 08:26N 37°08' W 008°32'0 0.0
2014-Apr-13 07:26N 37°08' W 008°32'0 0.0
2014-Apr-13 06:26N 37°08' W 008°32'7 7.7
2014-Apr-13 05:34N 37°01' W 008°34'1010.0
2014-Apr-13 04:34N 36°53' W 008°42'1111.2
2014-Apr-13 03:34N 36°49' W 008°55'1110.8
2014-Apr-13 02:34N 36°53' W 009°08'1111.5
2014-Apr-13 01:33N 37°03' W 009°15'1111.2
2014-Apr-13 00:33N 37°11' W 009°25'1111.3
2014-Apr-12 23:33N 37°21' W 009°31'1111.2
2014-Apr-12 22:33N 37°30' W 009°40'10 9.9
2014-Apr-12 21:33N 37°40' W 009°42'1111.1
2014-Apr-12 20:34N 37°49' W 009°35'1111.3
2014-Apr-12 19:34N 37°59' W 009°27'1211.5
2014-Apr-12 18:33N 38°10' W 009°21'1212.2
2014-Apr-12 17:33N 38°22' W 009°23'1212.2
2014-Apr-12 16:33N 38°34' W 009°23'1110.8
2014-Apr-12 15:33N 38°41' W 009°12'4 4.3
2014-Apr-12 14:32N 38°43' W 009°07'0 0.0
2014-Apr-12 13:33N 38°43' W 009°07'0 0.0
2014-Apr-12 12:33N 38°43' W 009°07'0 0.0
2014-Apr-12 11:33N 38°43' W 009°07'0 0.0
2014-Apr-12 10:33N 38°43' W 009°07'0 0.0
2014-Apr-12 09:33N 38°43' W 009°07'0 0.0
2014-Apr-12 08:33N 38°43' W 009°07'0 0.0
2014-Apr-12 07:33N 38°43' W 009°07'0 0.0
2014-Apr-12 06:33N 38°43' W 009°07'1 1.0
2014-Apr-12 05:34N 38°42' W 009°08'9 9.1
2014-Apr-12 04:33N 38°39' W 009°19'1110.5
2014-Apr-12 03:33N 38°29' W 009°23'1110.8
2014-Apr-12 02:33N 38°18' W 009°22'1110.6
2014-Apr-12 01:33N 38°08' W 009°22'1110.6
2014-Apr-12 00:34N 37°57' W 009°21'1110.6
2014-Apr-11 23:33N 37°47' W 009°21'1110.6
2014-Apr-11 22:33N 37°36' W 009°21'1110.6
2014-Apr-11 21:33N 37°25' W 009°21'1110.8
2014-Apr-11 20:34N 37°15' W 009°21'1211.6
2014-Apr-11 19:33N 37°03' W 009°20'1411.3
2014-Apr-11 18:20N 36°50' W 009°15'911.5
2014-Apr-11 17:33N 36°45' W 009°06'1211.8
2014-Apr-11 16:34N 36°42' W 008°52'1212.1
2014-Apr-11 15:34N 36°38' W 008°37'1212.1
2014-Apr-11 14:34N 36°34' W 008°23'1412.7
2014-Apr-11 13:28N 36°30' W 008°07'1212.9
2014-Apr-11 12:33N 36°26' W 007°53'1412.7
2014-Apr-11 11:28N 36°20' W 007°37'1212.8
2014-Apr-11 10:33N 36°17' W 007°23'1212.5
2014-Apr-11 09:33N 36°13' W 007°09'6511.9
2014-Apr-11 04:03N 35°58' W 005°50'510.7
2014-Apr-11 03:32N 35°58' W 005°43'9 9.5
2014-Apr-11 02:34N 35°59' W 005°32'10 9.8
2014-Apr-11 01:34N 36°02' W 005°20'1211.6
2014-Apr-11 00:33N 36°08' W 005°08'1212.1
2014-Apr-10 23:34N 36°15' W 004°55'1312.0
2014-Apr-10 22:28N 36°22' W 004°42'1312.0
2014-Apr-10 21:22N 36°31' W 004°29'179 4.4
2014-Apr-09 05:06N 37°33' W 000°59'1111.0
2014-Apr-09 04:04N 37°30' W 000°45'713.6
2014-Apr-09 03:33N 37°33' W 000°37'1312.8
2014-Apr-09 02:33N 37°43' W 000°27'1413.6
2014-Apr-09 01:32N 37°55' W 000°18'1413.7
2014-Apr-09 00:29N 38°06' W 000°08'  

Dump ship's entire track history

sailing weather and tide predictions

Thomson Majesty — 9HA2188 — position and weather